Time;durP1;ratioP1;P1;durP2;ratioP2;P2;SDS_P1;SDS_P2;PMS_P1;PMS_P2;Temp;Humidity;BMP_temperature;BMP_pressure;BME280_temperature;BME280_humidity;BME280_pressure;Samples;Min_cycle;Max_cycle;Signal;HPM_P1;HPM_P2
2021/01/15 00:05:55;;;;;;;;;42.00;31.00;;;;;;;;12137853;29;9646;-44
2021/01/15 00:11:56;;;;;;;;;54.00;47.33;;;;;;;;12145415;29;9636;-48
2021/01/15 00:17:58;;;;;;;;;45.67;42.67;;;;;;;;12145696;29;8854;-46
2021/01/15 00:24:03;;;;;;;;;44.33;39.67;;;;;;;;12144066;29;8901;-46
2021/01/15 00:30:08;;;;;;;;;31.00;26.00;;;;;;;;12145653;29;8858;-46
2021/01/15 00:36:10;;;;;;;;;57.67;50.67;;;;;;;;12143696;29;8854;-48
2021/01/15 00:42:11;;;;;;;;;55.00;46.00;;;;;;;;12139741;29;8848;-49
2021/01/15 00:48:13;;;;;;;;;44.33;42.00;;;;;;;;12121650;29;8862;-49
2021/01/15 00:54:14;;;;;;;;;65.67;48.33;;;;;;;;12126148;29;8944;-46
2021/01/15 01:00:16;;;;;;;;;52.67;45.00;;;;;;;;12145247;29;8866;-46
2021/01/15 01:06:33;;;;;;;;;57.33;47.00;;;;;;;;12124366;29;8965;-47
2021/01/15 01:12:39;;;;;;;;;58.33;46.00;;;;;;;;12143260;29;8869;-46
2021/01/15 01:18:42;;;;;;;;;63.33;52.00;;;;;;;;12136261;29;8889;-47
2021/01/15 01:24:43;;;;;;;;;62.00;51.33;;;;;;;;12142547;29;8887;-47
2021/01/15 01:30:45;;;;;;;;;68.67;50.67;;;;;;;;12144654;29;8961;-46
2021/01/15 01:36:46;;;;;;;;;63.00;51.00;;;;;;;;12142785;29;10001;-46
2021/01/15 01:42:47;;;;;;;;;45.33;44.33;;;;;;;;12143835;29;8839;-47
2021/01/15 01:48:49;;;;;;;;;59.33;52.00;;;;;;;;12152668;29;8854;-47
2021/01/15 01:54:51;;;;;;;;;63.00;46.67;;;;;;;;12150591;29;8855;-45
2021/01/15 02:00:58;;;;;;;;;51.67;46.33;;;;;;;;12151984;29;8879;-47
2021/01/15 02:07:00;;;;;;;;;27.67;26.33;;;;;;;;12149610;29;8913;-47
2021/01/15 02:13:14;;;;;;;;;65.33;50.67;;;;;;;;12150859;29;8846;-46
2021/01/15 02:19:36;;;;;;;;;66.00;53.67;;;;;;;;12149927;29;8961;-47
2021/01/15 02:26:02;;;;;;;;;60.67;48.33;;;;;;;;12149236;29;8859;-46
2021/01/15 02:32:49;;;;;;;;;60.00;48.67;;;;;;;;12145278;29;8855;-47
2021/01/15 02:38:55;;;;;;;;;60.33;49.33;;;;;;;;12142887;29;8945;-47
2021/01/15 02:44:57;;;;;;;;;53.33;46.33;;;;;;;;12148866;29;8866;-47
2021/01/15 02:50:59;;;;;;;;;58.00;48.00;;;;;;;;12149051;29;8867;-47
2021/01/15 02:57:01;;;;;;;;;45.00;40.67;;;;;;;;12149600;29;9526;-45
2021/01/15 03:03:29;;;;;;;;;60.67;48.33;;;;;;;;12147078;29;8855;-48
2021/01/15 03:09:37;;;;;;;;;52.67;42.00;;;;;;;;12149467;29;8846;-49
2021/01/15 03:15:40;;;;;;;;;49.33;44.67;;;;;;;;12148098;29;8929;-48
2021/01/15 03:21:44;;;;;;;;;55.33;42.33;;;;;;;;12138572;29;8830;-49
2021/01/15 03:27:51;;;;;;;;;62.25;48.25;;;;;;;;12147985;29;8950;-45
2021/01/15 03:33:52;;;;;;;;;59.33;49.33;;;;;;;;12145723;29;8867;-46
2021/01/15 03:39:53;;;;;;;;;65.00;47.50;;;;;;;;12147939;29;8873;-46
2021/01/15 03:45:56;;;;;;;;;45.67;41.33;;;;;;;;12145267;29;8867;-46
2021/01/15 03:51:58;;;;;;;;;49.50;43.50;;;;;;;;12146437;29;8922;-46
2021/01/15 03:58:00;;;;;;;;;58.33;46.00;;;;;;;;12146017;29;8851;-50
2021/01/15 04:04:02;;;;;;;;;39.25;35.25;;;;;;;;12145572;29;8879;-45
2021/01/15 04:10:12;;;;;;;;;59.00;48.67;;;;;;;;12145269;29;8906;-47
2021/01/15 04:16:15;;;;;;;;;41.25;35.25;;;;;;;;12144669;29;8847;-46
2021/01/15 04:22:16;;;;;;;;;49.25;43.50;;;;;;;;12145055;29;8846;-45
2021/01/15 04:28:18;;;;;;;;;51.67;36.33;;;;;;;;12145196;29;8846;-47
2021/01/15 04:34:19;;;;;;;;;66.00;51.75;;;;;;;;12144131;29;8922;-46
2021/01/15 04:40:20;;;;;;;;;56.50;47.75;;;;;;;;12145236;29;8913;-46
2021/01/15 04:46:24;;;;;;;;;70.33;48.33;;;;;;;;12143643;29;8883;-47
2021/01/15 04:52:28;;;;;;;;;48.25;45.00;;;;;;;;12143812;29;8897;-48
2021/01/15 04:58:33;;;;;;;;;60.00;51.00;;;;;;;;12144440;29;8956;-47
2021/01/15 05:04:36;;;;;;;;;65.50;49.50;;;;;;;;12669463;23;8856;-56
2021/01/15 05:10:40;;;;;;;;;56.00;46.50;;;;;;;;12280311;28;8915;-56
2021/01/15 05:16:43;;;;;;;;;66.75;52.25;;;;;;;;12275831;29;9617;-56
2021/01/15 05:22:48;;;;;;;;;63.50;47.75;;;;;;;;12290917;28;8963;-55
2021/01/15 05:28:49;;;;;;;;;65.00;51.75;;;;;;;;12292197;28;9454;-55
2021/01/15 05:34:51;;;;;;;;;52.75;48.50;;;;;;;;12294538;28;8848;-55
2021/01/15 05:40:55;;;;;;;;;40.67;40.67;;;;;;;;12288658;28;8851;-56
2021/01/15 05:46:59;;;;;;;;;65.00;50.25;;;;;;;;12289678;28;8845;-55
2021/01/15 05:53:01;;;;;;;;;73.00;57.50;;;;;;;;12288341;28;8832;-56
2021/01/15 05:59:07;;;;;;;;;71.25;55.50;;;;;;;;12289382;28;8859;-55
2021/01/15 06:05:16;;;;;;;;;57.00;48.00;;;;;;;;12240693;28;9094;-57
2021/01/15 06:11:23;;;;;;;;;63.00;53.75;;;;;;;;12237386;29;8822;-57
2021/01/15 06:17:26;;;;;;;;;58.50;51.75;;;;;;;;12252015;29;9642;-56
2021/01/15 06:23:31;;;;;;;;;70.25;57.25;;;;;;;;12232716;29;8876;-58
2021/01/15 06:29:42;;;;;;;;;68.25;52.25;;;;;;;;12231065;29;9665;-59
2021/01/15 06:35:47;;;;;;;;;70.00;55.67;;;;;;;;12224186;29;9002;-57
2021/01/15 06:42:02;;;;;;;;;53.67;48.33;;;;;;;;12233540;29;8834;-58
2021/01/15 06:48:21;;;;;;;;;66.25;53.75;;;;;;;;12228572;29;8922;-59
2021/01/15 06:54:33;;;;;;;;;66.25;54.50;;;;;;;;12230416;29;8912;-58
2021/01/15 07:00:38;;;;;;;;;67.50;53.50;;;;;;;;12230597;29;8881;-59
2021/01/15 07:06:52;;;;;;;;;59.67;48.33;;;;;;;;12231937;29;8863;-58
2021/01/15 07:12:59;;;;;;;;;60.67;50.33;;;;;;;;12228047;29;8887;-58
2021/01/15 07:19:14;;;;;;;;;64.33;48.67;;;;;;;;12226813;29;8852;-59
2021/01/15 07:25:17;;;;;;;;;71.33;58.67;;;;;;;;12233088;29;8838;-57
2021/01/15 07:31:23;;;;;;;;;73.67;60.33;;;;;;;;12230137;29;8834;-54
2021/01/15 07:37:27;;;;;;;;;55.00;47.33;;;;;;;;12231625;29;9606;-56
2021/01/15 07:43:30;;;;;;;;;59.33;52.00;;;;;;;;12229693;29;9947;-56
2021/01/15 07:49:48;;;;;;;;;60.67;52.67;;;;;;;;12231691;29;8908;-59
2021/01/15 07:55:59;;;;;;;;;67.00;55.67;;;;;;;;12227283;29;8838;-58
2021/01/15 08:02:03;;;;;;;;;73.00;60.00;;;;;;;;12232035;29;9122;-57
2021/01/15 08:08:13;;;;;;;;;58.67;51.67;;;;;;;;12233725;29;8835;-58
2021/01/15 08:14:23;;;;;;;;;69.67;54.67;;;;;;;;12230715;29;8869;-59
2021/01/15 08:20:25;;;;;;;;;78.00;60.67;;;;;;;;12233049;29;8854;-59
2021/01/15 08:26:36;;;;;;;;;73.00;60.00;;;;;;;;12229080;29;8875;-58
2021/01/15 08:32:40;;;;;;;;;79.00;62.33;;;;;;;;12226439;29;8869;-56
2021/01/15 08:38:42;;;;;;;;;75.00;58.67;;;;;;;;12221233;29;8857;-61
2021/01/15 08:44:47;;;;;;;;;78.00;61.00;;;;;;;;12224580;29;8980;-57
2021/01/15 08:50:49;;;;;;;;;75.00;58.00;;;;;;;;12227059;29;8933;-59
2021/01/15 08:56:51;;;;;;;;;79.00;63.00;;;;;;;;12225572;29;8857;-59
2021/01/15 09:02:54;;;;;;;;;73.67;59.33;;;;;;;;12232073;29;8875;-57
2021/01/15 09:08:59;;;;;;;;;78.33;61.00;;;;;;;;12234878;29;8880;-58
2021/01/15 09:15:00;;;;;;;;;75.00;57.67;;;;;;;;12237119;29;8854;-57
2021/01/15 09:21:01;;;;;;;;;75.67;62.33;;;;;;;;12237511;29;8854;-58
2021/01/15 09:27:08;;;;;;;;;73.00;57.00;;;;;;;;12233934;29;9644;-57
2021/01/15 09:33:10;;;;;;;;;61.67;51.67;;;;;;;;12237459;29;8861;-56
2021/01/15 09:39:15;;;;;;;;;69.67;54.00;;;;;;;;12238433;29;8850;-57
2021/01/15 09:45:16;;;;;;;;;70.00;58.33;;;;;;;;12238004;29;8874;-58
2021/01/15 09:51:26;;;;;;;;;61.33;54.33;;;;;;;;12232986;29;8854;-60
2021/01/15 09:57:27;;;;;;;;;56.33;49.33;;;;;;;;12232730;29;8877;-55
2021/01/15 10:03:29;;;;;;;;;58.00;48.00;;;;;;;;12232765;29;8985;-57
2021/01/15 10:09:30;;;;;;;;;63.33;51.33;;;;;;;;12238315;29;8835;-58
2021/01/15 10:15:31;;;;;;;;;68.33;57.33;;;;;;;;12239134;29;8965;-60
2021/01/15 10:21:35;;;;;;;;;70.00;57.00;;;;;;;;12235924;29;8853;-59
2021/01/15 10:27:38;;;;;;;;;51.33;46.67;;;;;;;;12231500;29;8842;-58
2021/01/15 10:33:39;;;;;;;;;54.00;46.00;;;;;;;;12236247;29;8878;-57
2021/01/15 10:39:41;;;;;;;;;72.00;58.67;;;;;;;;12217263;29;9939;-57
2021/01/15 10:45:44;;;;;;;;;66.00;51.67;;;;;;;;12224002;29;8886;-60
2021/01/15 10:51:52;;;;;;;;;63.33;50.33;;;;;;;;12227609;29;8832;-59
2021/01/15 10:57:53;;;;;;;;;65.00;52.00;;;;;;;;12233075;29;8834;-58
2021/01/15 11:03:55;;;;;;;;;70.33;57.00;;;;;;;;12230278;29;9689;-60
2021/01/15 11:09:56;;;;;;;;;54.67;49.00;;;;;;;;12227494;29;8874;-58
2021/01/15 11:15:58;;;;;;;;;63.75;54.00;;;;;;;;12231646;29;8862;-59
2021/01/15 11:22:00;;;;;;;;;55.25;49.00;;;;;;;;12229058;29;9649;-61
2021/01/15 11:28:03;;;;;;;;;65.00;51.50;;;;;;;;12231409;29;8921;-59
2021/01/15 11:34:05;;;;;;;;;67.00;54.00;;;;;;;;12229780;29;8858;-60
2021/01/15 11:40:08;;;;;;;;;72.67;56.00;;;;;;;;12228731;29;8839;-58
2021/01/15 11:46:10;;;;;;;;;65.75;52.50;;;;;;;;12232219;29;8858;-58
2021/01/15 11:52:23;;;;;;;;;66.00;55.75;;;;;;;;12231008;29;8909;-59
2021/01/15 11:58:24;;;;;;;;;71.00;55.25;;;;;;;;12234192;29;8861;-59
2021/01/15 12:04:26;;;;;;;;;64.00;51.75;;;;;;;;12230206;29;8931;-57
2021/01/15 12:10:27;;;;;;;;;67.75;53.25;;;;;;;;12232312;29;9600;-58
2021/01/15 12:16:29;;;;;;;;;71.50;55.25;;;;;;;;12232632;29;8920;-58
2021/01/15 12:22:31;;;;;;;;;65.50;53.00;;;;;;;;12232702;29;8843;-59
2021/01/15 12:28:32;;;;;;;;;66.00;51.75;;;;;;;;12227143;29;8839;-58
2021/01/15 12:34:33;;;;;;;;;62.75;53.50;;;;;;;;12223603;29;8911;-62
2021/01/15 12:40:35;;;;;;;;;25.50;22.25;;;;;;;;12226561;29;8838;-58
2021/01/15 12:46:39;;;;;;;;;52.00;48.00;;;;;;;;12227383;29;8865;-59
2021/01/15 12:52:40;;;;;;;;;50.75;46.25;;;;;;;;12220183;29;8857;-58
2021/01/15 12:58:42;;;;;;;;;56.25;50.25;;;;;;;;12228901;29;8866;-59
2021/01/15 13:04:43;;;;;;;;;54.00;45.50;;;;;;;;12219249;29;8864;-59
2021/01/15 13:10:48;;;;;;;;;67.33;57.00;;;;;;;;12228971;29;8838;-58
2021/01/15 13:16:49;;;;;;;;;53.50;45.25;;;;;;;;12227841;29;8918;-57
2021/01/15 13:23:04;;;;;;;;;57.75;49.50;;;;;;;;12227934;29;8865;-58
2021/01/15 13:29:05;;;;;;;;;43.50;37.25;;;;;;;;12229907;29;8839;-59
2021/01/15 13:35:08;;;;;;;;;57.25;47.50;;;;;;;;12226751;29;10189;-55
2021/01/15 13:41:09;;;;;;;;;56.50;48.00;;;;;;;;12233750;29;8842;-59
2021/01/15 13:47:10;;;;;;;;;52.00;47.50;;;;;;;;12243560;29;8886;-57
2021/01/15 13:53:12;;;;;;;;;61.50;50.75;;;;;;;;12234473;29;9869;-56
2021/01/15 13:59:14;;;;;;;;;49.75;45.50;;;;;;;;12239646;28;8862;-58
2021/01/15 14:05:15;;;;;;;;;54.00;44.50;;;;;;;;12237121;29;9591;-55
2021/01/15 14:11:16;;;;;;;;;58.50;49.00;;;;;;;;12239400;29;8846;-57
2021/01/15 14:17:18;;;;;;;;;58.67;49.00;;;;;;;;12237214;29;9592;-60
2021/01/15 14:23:19;;;;;;;;;50.33;45.00;;;;;;;;12235738;29;8843;-59
2021/01/15 14:29:22;;;;;;;;;61.67;45.00;;;;;;;;12240848;29;8831;-58
2021/01/15 14:35:25;;;;;;;;;53.00;48.00;;;;;;;;12225290;29;8852;-59
2021/01/15 14:41:26;;;;;;;;;54.33;44.33;;;;;;;;12230471;29;8866;-61
2021/01/15 14:47:27;;;;;;;;;64.00;49.67;;;;;;;;12229053;29;8838;-57
2021/01/15 14:53:29;;;;;;;;;56.67;49.00;;;;;;;;12232983;29;8973;-58
2021/01/15 14:59:30;;;;;;;;;65.33;49.67;;;;;;;;12232559;29;8851;-58
2021/01/15 15:05:32;;;;;;;;;66.33;49.00;;;;;;;;12225187;29;8963;-58
2021/01/15 15:11:37;;;;;;;;;61.33;43.33;;;;;;;;12215739;29;8842;-58
2021/01/15 15:17:39;;;;;;;;;66.67;54.33;;;;;;;;12230534;29;8850;-59
2021/01/15 15:23:41;;;;;;;;;61.67;50.33;;;;;;;;12231313;29;8862;-58
2021/01/15 15:29:43;;;;;;;;;63.33;51.33;;;;;;;;12225491;29;8842;-57
2021/01/15 15:35:44;;;;;;;;;61.33;49.00;;;;;;;;12225546;29;8884;-58
2021/01/15 15:41:52;;;;;;;;;65.00;50.67;;;;;;;;12232673;29;8846;-59
2021/01/15 15:47:54;;;;;;;;;67.67;54.33;;;;;;;;12230822;29;8880;-56
2021/01/15 15:53:55;;;;;;;;;64.33;55.00;;;;;;;;12231977;29;8827;-59
2021/01/15 15:59:56;;;;;;;;;55.67;44.67;;;;;;;;12221967;29;8858;-58
2021/01/15 16:06:00;;;;;;;;;58.33;48.00;;;;;;;;12226279;29;8856;-57
2021/01/15 16:12:02;;;;;;;;;58.33;48.00;;;;;;;;12233526;29;8827;-57
2021/01/15 16:18:04;;;;;;;;;66.67;54.00;;;;;;;;12232923;29;8888;-57
2021/01/15 16:24:07;;;;;;;;;74.67;60.00;;;;;;;;12231455;29;9001;-57
2021/01/15 16:30:09;;;;;;;;;77.00;59.33;;;;;;;;12234719;29;8834;-59
2021/01/15 16:36:11;;;;;;;;;68.00;50.00;;;;;;;;12233071;29;8876;-58
2021/01/15 16:42:12;;;;;;;;;70.00;53.33;;;;;;;;12233769;29;8877;-58
2021/01/15 16:48:13;;;;;;;;;68.33;54.00;;;;;;;;12221877;29;9511;-59
2021/01/15 16:54:16;;;;;;;;;62.33;52.67;;;;;;;;12222730;29;8897;-58
2021/01/15 17:00:18;;;;;;;;;67.33;52.00;;;;;;;;12228443;29;8835;-59
2021/01/15 17:06:19;;;;;;;;;54.67;49.00;;;;;;;;12223883;29;8889;-61
2021/01/15 17:12:21;;;;;;;;;72.67;55.67;;;;;;;;12227364;29;8857;-58
2021/01/15 17:18:22;;;;;;;;;71.00;57.33;;;;;;;;12234108;29;8840;-57
2021/01/15 17:24:24;;;;;;;;;69.33;52.00;;;;;;;;12234167;29;8878;-57
2021/01/15 17:30:26;;;;;;;;;79.00;59.33;;;;;;;;12239339;29;8854;-58
2021/01/15 17:36:27;;;;;;;;;74.33;60.67;;;;;;;;12234887;29;8862;-58
2021/01/15 17:42:29;;;;;;;;;80.33;62.33;;;;;;;;12238125;29;8857;-57
2021/01/15 17:48:30;;;;;;;;;73.67;58.67;;;;;;;;12235299;29;8848;-60
2021/01/15 17:54:32;;;;;;;;;70.67;57.67;;;;;;;;12235670;29;9028;-57
2021/01/15 18:00:34;;;;;;;;;74.33;57.67;;;;;;;;12239165;29;8869;-56
2021/01/15 18:06:36;;;;;;;;;70.00;54.00;;;;;;;;12236338;29;8850;-59
2021/01/15 18:12:38;;;;;;;;;68.33;54.67;;;;;;;;12237700;29;8839;-58
2021/01/15 18:18:39;;;;;;;;;67.00;52.00;;;;;;;;12235776;29;8872;-55
2021/01/15 18:24:41;;;;;;;;;70.00;57.67;;;;;;;;12236585;29;8842;-58
2021/01/15 18:30:43;;;;;;;;;67.00;54.33;;;;;;;;12239458;29;8908;-59
2021/01/15 18:36:45;;;;;;;;;68.67;57.33;;;;;;;;12230520;29;9773;-57
2021/01/15 18:42:47;;;;;;;;;66.67;56.33;;;;;;;;12238154;29;9640;-58
2021/01/15 18:48:49;;;;;;;;;68.67;54.00;;;;;;;;12228507;29;8852;-58
2021/01/15 18:54:50;;;;;;;;;59.00;49.00;;;;;;;;12230899;29;8957;-60
2021/01/15 19:00:52;;;;;;;;;59.33;49.67;;;;;;;;12231699;29;8838;-59
2021/01/15 19:06:54;;;;;;;;;55.00;48.00;;;;;;;;12224038;29;9606;-56
2021/01/15 19:12:58;;;;;;;;;56.33;46.67;;;;;;;;12231634;29;8839;-58
2021/01/15 19:18:59;;;;;;;;;48.67;44.33;;;;;;;;12232703;29;8871;-58
2021/01/15 19:25:01;;;;;;;;;65.33;50.67;;;;;;;;12230926;29;8835;-58
2021/01/15 19:31:05;;;;;;;;;49.33;43.00;;;;;;;;12235456;29;8849;-57
2021/01/15 19:37:10;;;;;;;;;54.33;48.00;;;;;;;;12226451;29;8851;-58
2021/01/15 19:43:16;;;;;;;;;49.33;39.33;;;;;;;;12231378;29;8834;-58
2021/01/15 19:49:17;;;;;;;;;50.33;44.33;;;;;;;;12230914;29;8842;-58
2021/01/15 19:55:19;;;;;;;;;51.00;45.00;;;;;;;;12232110;29;8888;-57
2021/01/15 20:01:20;;;;;;;;;54.33;46.33;;;;;;;;12231840;29;8843;-57
2021/01/15 20:07:22;;;;;;;;;49.33;40.67;;;;;;;;12228662;29;9665;-57
2021/01/15 20:13:23;;;;;;;;;52.67;45.00;;;;;;;;12232495;29;8842;-56
2021/01/15 20:19:26;;;;;;;;;46.67;40.67;;;;;;;;12232479;29;8838;-57
2021/01/15 20:25:29;;;;;;;;;45.67;39.67;;;;;;;;12232990;29;8863;-56
2021/01/15 20:31:31;;;;;;;;;48.67;42.67;;;;;;;;12231601;29;8836;-58
2021/01/15 20:37:33;;;;;;;;;50.33;44.67;;;;;;;;12231490;29;8928;-57
2021/01/15 20:43:34;;;;;;;;;51.33;46.67;;;;;;;;12233634;29;8850;-57
2021/01/15 20:49:35;;;;;;;;;47.67;42.33;;;;;;;;12233272;29;8852;-58
2021/01/15 20:55:37;;;;;;;;;51.33;47.33;;;;;;;;12240636;29;8862;-57
2021/01/15 21:01:38;;;;;;;;;56.33;48.00;;;;;;;;12239620;29;8844;-59
2021/01/15 21:07:41;;;;;;;;;53.33;45.33;;;;;;;;12241025;29;8913;-57
2021/01/15 21:13:43;;;;;;;;;49.00;43.67;;;;;;;;12242586;29;8842;-56
2021/01/15 21:19:44;;;;;;;;;55.67;48.33;;;;;;;;12236268;29;8864;-57
2021/01/15 21:25:46;;;;;;;;;54.67;44.33;;;;;;;;12242340;29;8847;-57
2021/01/15 21:31:48;;;;;;;;;61.33;47.00;;;;;;;;12242686;29;8841;-57
2021/01/15 21:37:55;;;;;;;;;62.67;50.33;;;;;;;;12243262;29;8862;-56
2021/01/15 21:43:57;;;;;;;;;50.33;46.67;;;;;;;;12244438;29;8845;-57
2021/01/15 21:49:58;;;;;;;;;53.33;47.00;;;;;;;;12239342;29;8860;-56
2021/01/15 21:56:00;;;;;;;;;53.67;45.33;;;;;;;;12244838;29;8877;-57
2021/01/15 22:02:01;;;;;;;;;51.00;42.00;;;;;;;;12247911;29;8836;-56
2021/01/15 22:08:11;;;;;;;;;50.33;39.67;;;;;;;;12236586;29;8854;-58
2021/01/15 22:14:13;;;;;;;;;44.00;41.67;;;;;;;;12237297;29;8858;-58
2021/01/15 22:20:14;;;;;;;;;50.67;40.33;;;;;;;;12235195;29;8858;-58
2021/01/15 22:26:21;;;;;;;;;45.33;43.33;;;;;;;;12236856;29;9312;-56
2021/01/15 22:32:22;;;;;;;;;55.00;46.00;;;;;;;;12238694;29;8834;-58
2021/01/15 22:38:25;;;;;;;;;51.00;45.33;;;;;;;;12237411;29;8932;-55
2021/01/15 22:44:26;;;;;;;;;60.67;50.00;;;;;;;;12236968;29;8838;-57
2021/01/15 22:50:28;;;;;;;;;51.00;44.33;;;;;;;;12229657;29;8857;-54
2021/01/15 22:56:33;;;;;;;;;57.00;48.33;;;;;;;;12229791;29;8850;-57
2021/01/15 23:02:35;;;;;;;;;54.00;45.00;;;;;;;;12225560;29;8887;-55
2021/01/15 23:08:36;;;;;;;;;48.67;36.33;;;;;;;;12228955;29;8858;-56
2021/01/15 23:14:38;;;;;;;;;54.67;44.00;;;;;;;;12228715;29;9598;-55
2021/01/15 23:20:41;;;;;;;;;47.67;41.33;;;;;;;;12230870;29;8884;-55
2021/01/15 23:26:43;;;;;;;;;47.33;39.67;;;;;;;;12230372;29;8851;-54
2021/01/15 23:32:44;;;;;;;;;37.67;35.67;;;;;;;;12224714;29;8860;-57
2021/01/15 23:38:46;;;;;;;;;45.00;42.33;;;;;;;;12231024;29;8859;-56
2021/01/15 23:44:47;;;;;;;;;49.33;35.67;;;;;;;;12229093;29;9099;-54
2021/01/15 23:50:58;;;;;;;;;52.00;40.67;;;;;;;;12232451;29;8846;-54
2021/01/15 23:56:59;;;;;;;;;46.67;40.00;;;;;;;;12231437;29;8865;-56
